Eugenia, Canada
Current Conditions -  °F | °C
As of 9:00 AM on Friday 24 Oct 2014 (Local Time) from CYBN Reporting Station
Overcast Overcast  
Wind Chill: 32°   Ceiling: 1500
Heat Index: 32°   Visibility: 9mi
Dew Point: 32°   Wind: 2mph
Humidity: 100%   Direction: 250°WSW
Pressure: 30.05"   Gusts: NA
Location:  44.32°N, 80.53°W
Report Text: CYBN 241300Z AUTO 25002KT 9SM OVC015 00/00 A3005 RMK SLP183
Loading
Personal Weather Stations






























Interactive Weather Map
Tropical Storm Tracking
New forecast layout! Learn more

10-Day Weather Forecast

Advertisements
Track Severe Weather on mobile